Time,TemperatureF,DewpointF,PressureIn,WindDirection,WindDirectionDegrees,WindSpeedMPH,WindSpeedGustMPH,Humidity,HourlyPrecipIn,Conditions,Clouds,dailyrainin,SolarRadiationWatts/m^2,SoftwareType,DateUTC
2013-09-28 00:12:00,58.1,55.0,30.13,SW,225,0.0,0.0,88,0.00,,,0.00,0,weatherlink.com 1.10,2013-09-28 04:12:00,
2013-09-28 00:27:00,57.6,54.0,30.13,SW,225,0.0,0.0,89,0.00,,,0.00,0,weatherlink.com 1.10,2013-09-28 04:27:00,
2013-09-28 00:42:00,57.4,55.0,30.13,SW,225,0.0,0.0,90,0.00,,,0.00,0,weatherlink.com 1.10,2013-09-28 04:42:00,
2013-09-28 00:57:00,57.0,54.0,30.13,SW,225,0.0,0.0,90,0.00,,,0.00,0,weatherlink.com 1.10,2013-09-28 04:57:00,
2013-09-28 01:12:00,56.5,54.0,30.13,SW,225,0.0,0.0,92,0.00,,,0.00,0,weatherlink.com 1.10,2013-09-28 05:12:00,
2013-09-28 01:28:00,56.4,54.0,30.13,SW,225,0.0,0.0,92,0.00,,,0.00,0,weatherlink.com 1.10,2013-09-28 05:28:00,
2013-09-28 01:43:00,55.9,54.0,30.13,SW,225,0.0,0.0,92,0.00,,,0.00,0,weatherlink.com 1.10,2013-09-28 05:43:00,
2013-09-28 01:58:00,55.6,54.0,30.13,SW,225,0.0,0.0,93,0.00,,,0.00,0,weatherlink.com 1.10,2013-09-28 05:58:00,
2013-09-28 02:13:00,55.5,54.0,30.13,SW,225,0.0,0.0,94,0.00,,,0.00,0,weatherlink.com 1.10,2013-09-28 06:13:00,
2013-09-28 02:28:00,55.1,54.0,30.13,SW,225,0.0,0.0,94,0.00,,,0.00,0,weatherlink.com 1.10,2013-09-28 06:28:00,
2013-09-28 02:43:00,55.0,54.0,30.13,SW,225,0.0,0.0,95,0.00,,,0.00,0,weatherlink.com 1.10,2013-09-28 06:43:00,
2013-09-28 02:58:00,54.6,53.0,30.13,SW,225,0.0,0.0,94,0.00,,,0.00,0,weatherlink.com 1.10,2013-09-28 06:58:00,
2013-09-28 03:13:00,54.1,53.0,30.13,SW,225,0.0,0.0,95,0.00,,,0.00,0,weatherlink.com 1.10,2013-09-28 07:13:00,
2013-09-28 03:28:00,53.7,52.0,30.12,SW,225,0.0,0.0,95,0.00,,,0.00,0,weatherlink.com 1.10,2013-09-28 07:28:00,
2013-09-28 03:43:00,53.5,52.0,30.12,SW,225,0.0,0.0,95,0.00,,,0.00,0,weatherlink.com 1.10,2013-09-28 07:43:00,
2013-09-28 03:58:00,53.6,53.0,30.13,SW,225,0.0,0.0,96,0.00,,,0.00,0,weatherlink.com 1.10,2013-09-28 07:58:00,
2013-09-28 04:13:00,53.9,53.0,30.13,SW,225,0.0,0.0,96,0.00,,,0.00,0,weatherlink.com 1.10,2013-09-28 08:13:00,
2013-09-28 04:28:00,53.6,53.0,30.13,SW,225,0.0,0.0,96,0.00,,,0.00,0,weatherlink.com 1.10,2013-09-28 08:28:00,
2013-09-28 04:43:00,53.2,52.0,30.13,SW,225,0.0,0.0,96,0.00,,,0.00,0,weatherlink.com 1.10,2013-09-28 08:43:00,
2013-09-28 04:58:00,53.0,52.0,30.13,SW,225,0.0,0.0,96,0.00,,,0.00,0,weatherlink.com 1.10,2013-09-28 08:58:00,
2013-09-28 05:13:00,52.6,52.0,30.13,SW,225,0.0,0.0,96,0.00,,,0.00,0,weatherlink.com 1.10,2013-09-28 09:13:00,
2013-09-28 05:28:00,52.4,52.0,30.14,SW,225,0.0,0.0,97,0.00,,,0.00,0,weatherlink.com 1.10,2013-09-28 09:28:00,
2013-09-28 05:43:00,52.3,51.0,30.14,SW,225,0.0,0.0,96,0.00,,,0.00,0,weatherlink.com 1.10,2013-09-28 09:43:00,
2013-09-28 05:58:00,52.1,51.0,30.14,SW,225,0.0,2.0,97,0.00,,,0.00,0,weatherlink.com 1.10,2013-09-28 09:58:00,
2013-09-28 06:13:00,52.1,51.0,30.15,SW,225,0.0,0.0,97,0.00,,,0.00,0,weatherlink.com 1.10,2013-09-28 10:13:00,
2013-09-28 06:28:00,52.1,51.0,30.15,SW,225,0.0,0.0,97,0.00,,,0.00,0,weatherlink.com 1.10,2013-09-28 10:28:00,
2013-09-28 06:43:00,52.0,51.0,30.16,SW,225,0.0,0.0,97,0.00,,,0.00,0,weatherlink.com 1.10,2013-09-28 10:43:00,
2013-09-28 06:58:00,51.4,50.0,30.16,SW,225,0.0,0.0,96,0.00,,,0.00,0,weatherlink.com 1.10,2013-09-28 10:58:00,
2013-09-28 07:13:00,51.0,50.0,30.16,SW,225,0.0,1.0,96,0.00,,,0.00,0,weatherlink.com 1.10,2013-09-28 11:13:00,
2013-09-28 07:28:00,51.1,50.0,30.16,SW,225,0.0,0.0,96,0.00,,,0.00,0,weatherlink.com 1.10,2013-09-28 11:28:00,
2013-09-28 07:43:00,51.4,51.0,30.16,SW,225,0.0,1.0,97,0.00,,,0.00,0,weatherlink.com 1.10,2013-09-28 11:43:00,
2013-09-28 07:58:00,51.6,51.0,30.17,SW,225,0.0,0.0,97,0.00,,,0.00,7,weatherlink.com 1.10,2013-09-28 11:58:00,
2013-09-28 08:13:00,52.0,51.0,30.17,SW,225,0.0,0.0,97,0.00,,,0.00,11,weatherlink.com 1.10,2013-09-28 12:13:00,
2013-09-28 08:28:00,52.3,52.0,30.17,SW,225,0.0,0.0,97,0.00,,,0.00,12,weatherlink.com 1.10,2013-09-28 12:28:00,
2013-09-28 08:43:00,52.7,52.0,30.17,SW,225,0.0,0.0,97,0.00,,,0.00,16,weatherlink.com 1.10,2013-09-28 12:43:00,
2013-09-28 08:58:00,53.6,53.0,30.18,SW,225,0.0,0.0,97,0.00,,,0.00,18,weatherlink.com 1.10,2013-09-28 12:58:00,
2013-09-28 09:13:00,54.9,54.0,30.18,SW,225,0.0,0.0,97,0.00,,,0.00,19,weatherlink.com 1.10,2013-09-28 13:13:00,
2013-09-28 09:28:00,56.4,55.0,30.18,SW,225,0.0,0.0,95,0.00,,,0.00,21,weatherlink.com 1.10,2013-09-28 13:28:00,
2013-09-28 09:43:00,59.6,56.0,30.18,SW,225,0.0,2.0,88,0.00,,,0.00,25,weatherlink.com 1.10,2013-09-28 13:43:00,
2013-09-28 09:58:00,61.8,57.0,30.19,SSW,209,3.0,3.0,84,0.00,,,0.00,26,weatherlink.com 1.10,2013-09-28 13:58:00,
2013-09-28 10:14:00,63.8,58.0,30.18,SSW,192,1.0,1.0,80,0.00,,,0.00,28,weatherlink.com 1.10,2013-09-28 14:14:00,
2013-09-28 10:29:00,65.4,58.0,30.18,SSW,192,0.0,2.0,78,0.00,,,0.00,32,weatherlink.com 1.10,2013-09-28 14:29:00,
2013-09-28 10:44:00,67.1,59.0,30.18,SSW,206,0.0,2.0,76,0.00,,,0.00,37,weatherlink.com 1.10,2013-09-28 14:44:00,
2013-09-28 10:59:00,68.6,59.0,30.18,SSW,204,1.0,4.0,71,0.00,,,0.00,42,weatherlink.com 1.10,2013-09-28 14:59:00,
2013-09-28 11:14:00,70.1,59.0,30.18,South,187,0.0,3.0,69,0.00,,,0.00,84,weatherlink.com 1.10,2013-09-28 15:14:00,
2013-09-28 11:29:00,71.8,59.0,30.18,South,179,3.0,4.0,65,0.00,,,0.00,181,weatherlink.com 1.10,2013-09-28 15:29:00,
2013-09-28 11:44:00,72.7,60.0,30.18,South,184,0.0,3.0,65,0.00,,,0.00,183,weatherlink.com 1.10,2013-09-28 15:44:00,
2013-09-28 11:59:00,74.1,60.0,30.17,South,179,2.0,4.0,62,0.00,,,0.00,60,weatherlink.com 1.10,2013-09-28 15:59:00,
2013-09-28 12:14:00,75.2,61.0,30.16,SW,217,1.0,2.0,61,0.00,,,0.00,62,weatherlink.com 1.10,2013-09-28 16:14:00,
2013-09-28 12:29:00,76.4,58.0,30.16,SSW,196,4.0,8.0,54,0.00,,,0.00,65,weatherlink.com 1.10,2013-09-28 16:29:00,
2013-09-28 12:44:00,77.1,59.0,30.15,South,184,3.0,3.0,53,0.00,,,0.00,132,weatherlink.com 1.10,2013-09-28 16:44:00,
2013-09-28 12:59:00,78.4,59.0,30.15,South,180,3.0,4.0,51,0.00,,,0.00,673,weatherlink.com 1.10,2013-09-28 16:59:00,
2013-09-28 13:14:00,78.9,60.0,30.14,SW,227,1.0,4.0,52,0.00,,,0.00,696,weatherlink.com 1.10,2013-09-28 17:14:00,
2013-09-28 13:29:00,79.8,60.0,30.13,SSW,198,0.0,3.0,51,0.00,,,0.00,715,weatherlink.com 1.10,2013-09-28 17:29:00,
2013-09-28 13:44:00,80.2,59.0,30.12,South,184,3.0,9.0,49,0.00,,,0.00,788,weatherlink.com 1.10,2013-09-28 17:44:00,
2013-09-28 13:59:00,80.7,60.0,30.12,South,182,2.0,6.0,49,0.00,,,0.00,798,weatherlink.com 1.10,2013-09-28 17:59:00,
2013-09-28 14:14:00,79.6,58.0,30.11,SSE,163,2.0,6.0,48,0.00,,,0.00,791,weatherlink.com 1.10,2013-09-28 18:14:00,
2013-09-28 14:29:00,80.8,57.0,30.11,South,178,1.0,7.0,45,0.00,,,0.00,791,weatherlink.com 1.10,2013-09-28 18:29:00,
2013-09-28 14:45:00,79.9,58.0,30.10,South,181,4.0,5.0,47,0.00,,,0.00,696,weatherlink.com 1.10,2013-09-28 18:45:00,
2013-09-28 15:00:00,82.1,57.0,30.10,South,191,0.0,10.0,42,0.00,,,0.00,610,weatherlink.com 1.10,2013-09-28 19:00:00,
2013-09-28 15:15:00,81.9,58.0,30.09,WSW,254,1.0,9.0,44,0.00,,,0.00,561,weatherlink.com 1.10,2013-09-28 19:15:00,
2013-09-28 15:30:00,81.4,58.0,30.09,SSW,198,1.0,5.0,45,0.00,,,0.00,640,weatherlink.com 1.10,2013-09-28 19:30:00,
2013-09-28 15:45:00,80.4,57.0,30.08,South,169,2.0,9.0,45,0.00,,,0.00,156,weatherlink.com 1.10,2013-09-28 19:45:00,
2013-09-28 16:00:00,80.6,57.0,30.08,SSE,150,2.0,11.0,45,0.00,,,0.00,202,weatherlink.com 1.10,2013-09-28 20:00:00,
2013-09-28 16:15:00,81.1,58.0,30.07,South,182,1.0,6.0,45,0.00,,,0.00,158,weatherlink.com 1.10,2013-09-28 20:15:00,
2013-09-28 16:30:00,81.6,59.0,30.07,South,184,0.0,5.0,47,0.00,,,0.00,408,weatherlink.com 1.10,2013-09-28 20:30:00,
2013-09-28 16:45:00,82.9,56.0,30.06,WNW,283,1.0,8.0,40,0.00,,,0.00,522,weatherlink.com 1.10,2013-09-28 20:45:00,
2013-09-28 17:00:00,82.0,56.0,30.06,SSW,192,1.0,8.0,41,0.00,,,0.00,468,weatherlink.com 1.10,2013-09-28 21:00:00,
2013-09-28 17:30:00,80.9,56.0,30.06,SSW,192,2.0,8.0,43,0.00,,,0.00,380,weatherlink.com 1.10,2013-09-28 21:30:00,
2013-09-28 17:45:00,79.8,58.0,30.05,SSW,205,1.0,7.0,47,0.00,,,0.00,109,weatherlink.com 1.10,2013-09-28 21:45:00,
2013-09-28 18:00:00,79.4,58.0,30.06,South,184,1.0,5.0,48,0.00,,,0.00,76,weatherlink.com 1.10,2013-09-28 22:00:00,
2013-09-28 18:15:00,79.3,59.0,30.06,SSW,199,3.0,7.0,50,0.00,,,0.00,54,weatherlink.com 1.10,2013-09-28 22:15:00,
2013-09-28 18:30:00,78.5,59.0,30.06,SW,218,2.0,6.0,52,0.00,,,0.00,25,weatherlink.com 1.10,2013-09-28 22:30:00,
2013-09-28 18:45:00,77.7,59.0,30.06,South,186,2.0,5.0,53,0.00,,,0.00,46,weatherlink.com 1.10,2013-09-28 22:45:00,
2013-09-28 19:00:00,77.1,59.0,30.06,South,190,1.0,3.0,54,0.00,,,0.00,18,weatherlink.com 1.10,2013-09-28 23:00:00,
2013-09-28 19:15:00,76.7,59.0,30.06,SSW,196,1.0,6.0,55,0.00,,,0.00,9,weatherlink.com 1.10,2013-09-28 23:15:00,
2013-09-28 19:30:00,76.2,59.0,30.06,South,173,2.0,6.0,55,0.00,,,0.00,0,weatherlink.com 1.10,2013-09-28 23:30:00,
2013-09-28 19:45:00,75.1,59.0,30.06,SSW,194,2.0,4.0,57,0.00,,,0.00,0,weatherlink.com 1.10,2013-09-28 23:45:00,
2013-09-28 20:00:00,73.9,59.0,30.06,SSW,202,0.0,3.0,59,0.00,,,0.00,0,weatherlink.com 1.10,2013-09-29 00:00:00,
2013-09-28 20:15:00,73.1,58.0,30.06,SSE,167,0.0,5.0,59,0.00,,,0.00,0,weatherlink.com 1.10,2013-09-29 00:15:00,
2013-09-28 20:30:00,71.8,58.0,30.06,SSE,167,0.0,0.0,62,0.00,,,0.00,0,weatherlink.com 1.10,2013-09-29 00:30:00,
2013-09-28 20:45:00,70.5,58.0,30.06,SSE,167,0.0,0.0,64,0.00,,,0.00,0,weatherlink.com 1.10,2013-09-29 00:45:00,
2013-09-28 21:00:00,70.5,58.0,30.06,SSE,167,0.0,2.0,65,0.00,,,0.00,0,weatherlink.com 1.10,2013-09-29 01:00:00,
2013-09-28 21:30:00,70.5,58.0,30.07,SSE,168,1.0,2.0,65,0.00,,,0.00,0,weatherlink.com 1.10,2013-09-29 01:30:00,
2013-09-28 21:45:00,69.7,58.0,30.07,South,175,0.0,1.0,66,0.00,,,0.00,0,weatherlink.com 1.10,2013-09-29 01:45:00,
2013-09-28 22:00:00,69.2,58.0,30.07,SSW,194,0.0,1.0,68,0.00,,,0.00,0,weatherlink.com 1.10,2013-09-29 02:00:00,
2013-09-28 22:15:00,68.9,58.0,30.07,SSW,194,0.0,0.0,69,0.00,,,0.00,0,weatherlink.com 1.10,2013-09-29 02:15:00,
2013-09-28 22:30:00,67.9,59.0,30.07,SSW,194,0.0,0.0,72,0.00,,,0.00,0,weatherlink.com 1.10,2013-09-29 02:30:00,
2013-09-28 22:45:00,67.4,58.0,30.07,SSW,194,0.0,0.0,73,0.00,,,0.00,0,weatherlink.com 1.10,2013-09-29 02:45:00,
2013-09-28 23:00:00,67.3,58.0,30.06,South,186,0.0,2.0,73,0.00,,,0.00,0,weatherlink.com 1.10,2013-09-29 03:00:00,
2013-09-28 23:15:00,67.1,59.0,30.07,SSW,197,3.0,3.0,74,0.00,,,0.00,0,weatherlink.com 1.10,2013-09-29 03:15:00,
2013-09-28 23:30:00,66.1,58.0,30.06,South,191,0.0,0.0,76,0.00,,,0.00,0,weatherlink.com 1.10,2013-09-29 03:30:00,
2013-09-28 23:45:00,65.0,58.0,30.06,South,191,0.0,0.0,79,0.00,,,0.00,0,weatherlink.com 1.10,2013-09-29 03:45:00,